Time;durP1;ratioP1;P1;durP2;ratioP2;P2;SDS_P1;SDS_P2;PMS_P1;PMS_P2;Temp;Humidity;BMP_temperature;BMP_pressure;BME280_temperature;BME280_humidity;BME280_pressure;Samples;Min_cycle;Max_cycle;Signal;HPM_P1;HPM_P2
2022/04/23 00:00:27;;;;;;;29.77;20.13;;;16.30;31.30;;;;;;5094110;28;20236;-67
2022/04/23 00:02:53;;;;;;;31.03;21.30;;;15.90;31.90;;;;;;5097779;28;20544;-67
2022/04/23 00:05:19;;;;;;;32.70;22.00;;;15.80;32.70;;;;;;5103787;28;20210;-66
2022/04/23 00:07:44;;;;;;;33.67;22.33;;;15.80;32.90;;;;;;5105102;28;20177;-66
2022/04/23 00:10:10;;;;;;;33.50;22.10;;;15.80;33.20;;;;;;5097370;28;20275;-67
2022/04/23 00:12:36;;;;;;;32.13;21.37;;;15.80;33.20;;;;;;5110303;28;20259;-67
2022/04/23 00:15:02;;;;;;;31.63;22.33;;;16.00;32.40;;;;;;5113506;28;20571;-67
2022/04/23 00:17:28;;;;;;;35.53;23.00;;;16.00;32.50;;;;;;5100050;28;20423;-68
2022/04/23 00:19:54;;;;;;;33.70;23.20;;;16.00;32.10;;;;;;5113821;28;20466;-67
2022/04/23 00:22:19;;;;;;;33.37;22.23;;;16.10;31.60;;;;;;5113551;28;20204;-67
2022/04/23 00:24:45;;;;;;;32.73;21.63;;;16.20;31.10;;;;;;5113637;28;20218;-67
2022/04/23 00:27:11;;;;;;;33.67;21.77;;;16.00;32.30;;;;;;5112794;28;20177;-67
2022/04/23 00:29:36;;;;;;;32.27;22.50;;;15.90;32.50;;;;;;5095600;28;20189;-67
2022/04/23 00:32:06;;;;;;;36.03;23.03;;;15.80;32.80;;;;;;5093077;28;20171;-67
2022/04/23 00:34:31;;;;;;;32.40;22.60;;;15.60;34.00;;;;;;5083205;28;20716;-67
2022/04/23 00:36:57;;;;;;;34.37;22.17;;;15.60;34.00;;;;;;5103912;28;20430;-67
2022/04/23 00:39:23;;;;;;;36.63;22.03;;;15.70;32.90;;;;;;5113534;28;20169;-67
2022/04/23 00:41:51;;;;;;;33.60;22.80;;;15.60;33.50;;;;;;5099070;28;20194;-67
2022/04/23 00:44:17;;;;;;;36.77;23.37;;;15.70;32.70;;;;;;5100766;28;20277;-67
2022/04/23 00:46:44;;;;;;;38.00;25.13;;;15.70;32.40;;;;;;5113644;28;21008;-67
2022/04/23 00:49:10;;;;;;;34.57;24.63;;;15.00;34.90;;;;;;5113483;28;20916;-67
2022/04/23 00:51:38;;;;;;;37.50;23.57;;;15.00;35.70;;;;;;5113383;28;20432;-66
2022/04/23 00:54:09;;;;;;;38.57;24.23;;;15.10;35.20;;;;;;5098198;28;20468;-66
2022/04/23 00:56:37;;;;;;;38.80;25.70;;;17.70;37.90;;;;;;5113198;28;20456;-67
2022/04/23 00:59:10;;;;;;;50.27;27.50;;;15.40;34.80;;;;;;5113201;28;20437;-67
2022/04/23 01:01:36;;;;;;;40.23;24.20;;;15.50;33.90;;;;;;5108298;28;20519;-66
2022/04/23 01:04:04;;;;;;;42.90;27.57;;;15.30;34.90;;;;;;5092490;28;20446;-67
2022/04/23 01:06:34;;;;;;;41.50;26.07;;;15.20;34.80;;;;;;5107688;28;20524;-66
2022/04/23 01:09:03;;;;;;;38.27;27.40;;;15.10;36.20;;;;;;5112892;28;20905;-67
2022/04/23 01:11:28;;;;;;;39.67;27.80;;;15.00;35.80;;;;;;5103956;28;20526;-67
2022/04/23 01:13:55;;;;;;;48.77;30.00;;;12.30;34.00;;;;;;5104813;28;20503;-67
2022/04/23 01:16:21;;;;;;;42.27;29.30;;;14.70;36.70;;;;;;5104682;28;20687;-66
2022/04/23 01:18:46;;;;;;;44.33;30.33;;;14.60;37.10;;;;;;5102829;28;20421;-67
2022/04/23 01:21:13;;;;;;;45.87;31.93;;;14.60;38.10;;;;;;5108577;28;20304;-67
2022/04/23 01:23:42;;;;;;;49.50;32.40;;;14.60;37.90;;;;;;5104274;28;20166;-67
2022/04/23 01:26:08;;;;;;;49.97;33.90;;;14.70;37.70;;;;;;5105790;28;20426;-69
2022/04/23 01:28:36;;;;;;;54.93;33.37;;;14.80;37.70;;;;;;5092492;28;20421;-67
2022/04/23 01:31:04;;;;;;;56.70;34.57;;;14.70;37.80;;;;;;5092074;28;20892;-66
2022/04/23 01:33:30;;;;;;;56.43;36.50;;;14.60;38.20;;;;;;5094846;28;20435;-68
2022/04/23 01:35:56;;;;;;;55.60;35.60;;;14.80;38.20;;;;;;5101557;28;20533;-67
2022/04/23 01:38:21;;;;;;;61.97;35.70;;;14.90;37.60;;;;;;5091707;28;21034;-68
2022/04/23 01:40:47;;;;;;;63.90;35.03;;;14.90;36.90;;;;;;5091533;28;20210;-67
2022/04/23 01:43:13;;;;;;;54.47;33.83;;;14.90;37.20;;;;;;5091876;28;20662;-67
2022/04/23 01:45:39;;;;;;;66.83;35.87;;;14.80;36.80;;;;;;5101749;28;20719;-67
2022/04/23 01:48:06;;;;;;;58.53;34.03;;;14.80;37.50;;;;;;5112007;28;20166;-67
2022/04/23 01:50:32;;;;;;;58.57;35.67;;;14.70;38.30;;;;;;5112083;28;20913;-66
2022/04/23 01:52:58;;;;;;;63.57;38.07;;;14.70;38.30;;;;;;5111877;28;20972;-67
2022/04/23 01:55:23;;;;;;;58.30;36.83;;;14.80;38.00;;;;;;5111359;28;20446;-67
2022/04/23 01:57:49;;;;;;;62.30;37.10;;;14.50;38.80;;;;;;5096757;28;20425;-67
2022/04/23 02:00:15;;;;;;;57.77;35.30;;;14.50;38.90;;;;;;5091531;28;20708;-67
2022/04/23 02:02:42;;;;;;;61.10;36.10;;;14.60;38.60;;;;;;5099414;28;20172;-67
2022/04/23 02:05:09;;;;;;;61.67;36.40;;;14.50;38.30;;;;;;5111855;28;20453;-67
2022/04/23 02:07:38;;;;;;;63.97;37.53;;;14.40;38.80;;;;;;5110093;28;20523;-67
2022/04/23 02:10:06;;;;;;;57.83;35.63;;;14.40;39.10;;;;;;5093948;28;20522;-68
2022/04/23 02:12:32;;;;;;;63.30;37.73;;;14.30;39.20;;;;;;5091262;28;20501;-66
2022/04/23 02:14:57;;;;;;;65.93;37.10;;;14.20;39.20;;;;;;5091513;28;20536;-67
2022/04/23 02:17:35;;;;;;;67.17;39.10;;;14.20;39.50;;;;;;5108447;28;20264;-66
2022/04/23 02:20:05;;;;;;;62.33;37.30;;;14.20;40.00;;;;;;5102032;28;20194;-67
2022/04/23 02:22:30;;;;;;;63.90;38.93;;;14.10;40.00;;;;;;5103594;28;20434;-68
2022/04/23 02:24:59;;;;;;;64.20;37.67;;;14.20;40.10;;;;;;5102067;28;20848;-66
2022/04/23 02:27:25;;;;;;;70.13;38.13;;;14.20;39.90;;;;;;5089998;28;20265;-67
2022/04/23 02:29:52;;;;;;;71.30;41.60;;;14.10;40.90;;;;;;5095535;28;20881;-68
2022/04/23 02:32:17;;;;;;;62.43;38.50;;;14.30;39.90;;;;;;5097491;28;20269;-67
2022/04/23 02:34:43;;;;;;;65.97;39.60;;;14.10;40.40;;;;;;5091232;28;20503;-68
2022/04/23 02:37:09;;;;;;;69.17;39.93;;;14.10;40.30;;;;;;5091232;28;20166;-67
2022/04/23 02:39:35;;;;;;;63.67;40.10;;;14.10;40.50;;;;;;5091526;28;20401;-66
2022/04/23 02:42:01;;;;;;;62.27;39.47;;;14.10;40.70;;;;;;5097122;28;20676;-67
2022/04/23 02:44:28;;;;;;;76.77;40.30;;;14.10;40.50;;;;;;5088684;28;20197;-66
2022/04/23 02:46:53;;;;;;;65.00;38.17;;;14.10;40.40;;;;;;5111697;28;20399;-67
2022/04/23 02:49:19;;;;;;;65.60;39.20;;;14.00;40.90;;;;;;5111535;28;20442;-66
2022/04/23 02:51:45;;;;;;;69.97;40.33;;;13.80;41.70;;;;;;5111623;28;20162;-67
2022/04/23 02:54:12;;;;;;;65.83;40.77;;;14.00;41.20;;;;;;5110547;28;20567;-67
2022/04/23 02:56:38;;;;;;;66.40;40.27;;;14.00;41.50;;;;;;5111919;28;20779;-67
2022/04/23 02:59:05;;;;;;;73.03;41.93;;;13.90;40.70;;;;;;5111401;28;20502;-67
2022/04/23 03:01:31;;;;;;;65.23;39.80;;;13.80;41.30;;;;;;5110880;28;20201;-67
2022/04/23 03:03:58;;;;;;;64.77;40.67;;;13.90;40.70;;;;;;5110646;28;20448;-67
2022/04/23 03:06:29;;;;;;;66.07;39.00;;;13.90;41.20;;;;;;5111636;28;20166;-67
2022/04/23 03:09:02;;;;;;;66.73;39.03;;;13.90;40.90;;;;;;5111334;28;20898;-66
2022/04/23 03:11:29;;;;;;;61.53;38.73;;;13.70;41.10;;;;;;5111141;28;20384;-67
2022/04/23 03:13:55;;;;;;;64.17;38.90;;;13.80;41.00;;;;;;5110512;28;20831;-67
2022/04/23 03:16:21;;;;;;;62.50;39.20;;;13.70;41.70;;;;;;5112637;28;20401;-68
2022/04/23 03:18:46;;;;;;;69.80;40.53;;;13.80;41.40;;;;;;5100696;28;20182;-67
2022/04/23 03:21:12;;;;;;;66.63;39.90;;;13.90;41.20;;;;;;5104233;28;20447;-68
2022/04/23 03:23:38;;;;;;;64.37;38.27;;;13.70;41.90;;;;;;5115085;28;20512;-66
2022/04/23 03:26:04;;;;;;;65.70;41.03;;;13.60;41.90;;;;;;5105279;28;20188;-67
2022/04/23 03:28:29;;;;;;;67.20;40.27;;;13.30;41.40;;;;;;5106799;28;20253;-67
2022/04/23 03:30:55;;;;;;;65.30;40.30;;;13.60;42.10;;;;;;5115013;28;20867;-67
2022/04/23 03:33:21;;;;;;;71.13;42.27;;;13.60;42.00;;;;;;5102422;28;20228;-67
2022/04/23 03:35:47;;;;;;;67.03;40.07;;;13.60;41.90;;;;;;5103688;28;20451;-66
2022/04/23 03:38:13;;;;;;;61.37;39.10;;;13.40;42.70;;;;;;5115004;28;20637;-66
2022/04/23 03:40:39;;;;;;;67.03;39.93;;;13.40;42.90;;;;;;5114860;28;20221;-66
2022/04/23 03:43:04;;;;;;;66.73;38.80;;;13.40;43.20;;;;;;5114423;28;20985;-66
2022/04/23 03:45:32;;;;;;;59.13;38.43;;;13.30;43.60;;;;;;5114236;28;20467;-66
2022/04/23 03:47:58;;;;;;;59.90;37.03;;;13.40;43.70;;;;;;5114846;28;20162;-67
2022/04/23 03:50:24;;;;;;;59.47;37.07;;;13.50;43.40;;;;;;5114590;28;20416;-67
2022/04/23 03:52:49;;;;;;;62.77;39.07;;;13.50;43.70;;;;;;5113903;28;20209;-69
2022/04/23 03:55:15;;;;;;;64.87;39.30;;;13.50;43.50;;;;;;5114692;28;20235;-68
2022/04/23 03:57:49;;;;;;;60.90;38.60;;;13.60;42.90;;;;;;5110135;28;20653;-67
2022/04/23 04:00:16;;;;;;;64.87;38.00;;;13.70;42.60;;;;;;5112643;28;20197;-66
2022/04/23 04:02:43;;;;;;;70.13;38.70;;;13.50;43.20;;;;;;5094128;28;20402;-67
2022/04/23 04:05:10;;;;;;;62.03;37.67;;;13.40;43.40;;;;;;5093550;28;20455;-67
2022/04/23 04:07:40;;;;;;;60.47;36.50;;;13.50;43.80;;;;;;5101818;28;20416;-67
2022/04/23 04:10:05;;;;;;;62.13;38.00;;;13.70;42.90;;;;;;5097202;28;20405;-68
2022/04/23 04:12:31;;;;;;;63.30;38.00;;;13.80;42.30;;;;;;5093572;28;20431;-67
2022/04/23 04:14:57;;;;;;;58.67;37.73;;;13.70;42.30;;;;;;5093610;28;20478;-66
2022/04/23 04:17:23;;;;;;;57.90;36.83;;;13.60;42.50;;;;;;5096149;28;20182;-66
2022/04/23 04:19:49;;;;;;;65.13;38.47;;;13.60;43.10;;;;;;5101433;28;20416;-67
2022/04/23 04:22:15;;;;;;;57.27;36.33;;;13.60;43.10;;;;;;5094226;28;20477;-67
2022/04/23 04:24:41;;;;;;;58.67;34.00;;;13.00;44.70;;;;;;5105033;28;20202;-67
2022/04/23 04:27:07;;;;;;;54.03;34.83;;;12.70;46.20;;;;;;5097507;28;20190;-66
2022/04/23 04:29:33;;;;;;;73.57;36.60;;;12.80;46.30;;;;;;5102322;28;20178;-66
2022/04/23 04:31:58;;;;;;;68.43;35.60;;;13.00;46.00;;;;;;5093259;28;20428;-67
2022/04/23 04:34:28;;;;;;;56.60;35.83;;;12.80;46.50;;;;;;5107069;28;20740;-67
2022/04/23 04:37:24;;;;;;;56.40;35.70;;;13.10;45.70;;;;;;5113720;28;20170;-67
2022/04/23 04:39:49;;;;;;;56.90;34.80;;;13.40;44.80;;;;;;5010392;28;20432;-67
2022/04/23 04:42:15;;;;;;;58.90;36.10;;;13.50;44.30;;;;;;5009164;28;20426;-67
2022/04/23 04:44:41;;;;;;;55.43;35.10;;;13.40;43.40;;;;;;4991009;28;20684;-67
2022/04/23 04:47:08;;;;;;;58.20;35.93;;;13.50;43.60;;;;;;5008871;28;20217;-67
2022/04/23 04:49:34;;;;;;;59.60;34.33;;;13.70;43.60;;;;;;5010598;28;20420;-66
2022/04/23 04:51:59;;;;;;;55.23;35.67;;;13.70;44.00;;;;;;5010345;28;20974;-66
2022/04/23 04:54:25;;;;;;;51.30;34.10;;;13.60;43.40;;;;;;5010482;28;20469;-67
2022/04/23 04:56:52;;;;;;;56.20;36.93;;;13.80;43.70;;;;;;5010307;28;20216;-67
2022/04/23 04:59:18;;;;;;;50.63;33.20;;;13.90;43.40;;;;;;4992264;28;20198;-67
2022/04/23 05:01:44;;;;;;;58.57;36.27;;;14.20;41.50;;;;;;5001855;28;20479;-67
2022/04/23 05:04:09;;;;;;;52.80;32.63;;;14.50;40.70;;;;;;4990409;28;20600;-66
2022/04/23 05:06:36;;;;;;;44.53;29.60;;;14.30;41.00;;;;;;4990603;28;20186;-66
2022/04/23 05:09:02;;;;;;;57.13;32.77;;;14.00;42.10;;;;;;4990737;28;20647;-67
2022/04/23 05:11:27;;;;;;;44.77;28.43;;;14.00;43.30;;;;;;4990538;28;20457;-67
2022/04/23 05:13:53;;;;;;;41.40;27.57;;;14.10;42.10;;;;;;5007040;28;20480;-67
2022/04/23 05:16:19;;;;;;;41.20;27.77;;;14.50;40.90;;;;;;5065227;28;20266;-66
2022/04/23 05:18:45;;;;;;;41.63;27.40;;;14.40;40.80;;;;;;5113077;28;20180;-66
2022/04/23 05:21:11;;;;;;;37.40;25.00;;;13.90;42.80;;;;;;5112795;28;20453;-67
2022/04/23 05:23:37;;;;;;;37.20;25.10;;;13.90;43.20;;;;;;5085377;28;20710;-67
2022/04/23 05:26:03;;;;;;;38.50;26.10;;;13.90;42.30;;;;;;5112928;28;20410;-67
2022/04/23 05:28:30;;;;;;;36.80;25.23;;;13.90;42.60;;;;;;5112707;28;20902;-68
2022/04/23 05:30:56;;;;;;;41.23;24.70;;;13.60;42.90;;;;;;5112699;28;20401;-67
2022/04/23 05:33:22;;;;;;;37.90;26.13;;;14.00;41.90;;;;;;5111245;28;20520;-69
2022/04/23 05:35:47;;;;;;;37.27;25.17;;;14.50;41.00;;;;;;5112429;28;20442;-68
2022/04/23 05:38:13;;;;;;;33.03;24.50;;;14.40;40.40;;;;;;5112970;28;20174;-67
2022/04/23 05:40:39;;;;;;;38.03;25.07;;;14.40;40.90;;;;;;5112031;28;20204;-67
2022/04/23 05:43:04;;;;;;;35.83;24.37;;;14.80;38.30;;;;;;5112331;28;20180;-67
2022/04/23 05:45:30;;;;;;;33.93;23.30;;;14.40;39.80;;;;;;5111624;28;20216;-67
2022/04/23 05:47:56;;;;;;;32.67;22.93;;;14.90;39.20;;;;;;5112299;28;20255;-67
2022/04/23 05:50:23;;;;;;;31.97;21.97;;;14.70;39.40;;;;;;5111460;28;20181;-67
2022/04/23 05:52:48;;;;;;;36.00;23.67;;;13.80;40.90;;;;;;5112363;28;20958;-67
2022/04/23 05:55:14;;;;;;;32.03;23.67;;;13.80;41.60;;;;;;5111328;28;20457;-67
2022/04/23 05:57:40;;;;;;;28.33;21.10;;;14.40;40.00;;;;;;5112362;28;20179;-68
2022/04/23 06:00:10;;;;;;;29.00;21.07;;;13.90;41.40;;;;;;5112065;28;20551;-68
2022/04/23 06:02:37;;;;;;;30.50;22.07;;;14.00;41.00;;;;;;5109909;28;20439;-68
2022/04/23 06:05:03;;;;;;;31.33;21.57;;;14.20;40.10;;;;;;5100000;28;20462;-68
2022/04/23 06:07:30;;;;;;;31.83;22.57;;;15.80;39.90;;;;;;5095453;28;20431;-68
2022/04/23 06:09:56;;;;;;;33.53;22.47;;;15.00;38.00;;;;;;5097899;28;20544;-67
2022/04/23 06:12:22;;;;;;;30.13;21.03;;;15.40;36.20;;;;;;5091641;28;20488;-67
2022/04/23 06:14:49;;;;;;;27.90;19.40;;;15.90;35.20;;;;;;5091712;28;20192;-67
2022/04/23 06:17:15;;;;;;;29.47;19.40;;;16.00;34.40;;;;;;5102649;28;20806;-68
2022/04/23 06:19:42;;;;;;;26.07;19.53;;;15.80;33.80;;;;;;5093720;28;20415;-68
2022/04/23 06:22:08;;;;;;;27.90;20.10;;;15.90;34.30;;;;;;5111577;28;20814;-67
2022/04/23 06:24:34;;;;;;;28.90;20.47;;;15.80;34.20;;;;;;5111434;28;20431;-68
2022/04/23 06:27:01;;;;;;;34.20;23.20;;;15.60;34.20;;;;;;5111251;28;20426;-67
2022/04/23 06:29:26;;;;;;;51.73;32.20;;;15.60;33.90;;;;;;5078712;28;20436;-67
2022/04/23 06:31:52;;;;;;;41.50;27.20;;;15.70;33.90;;;;;;5110157;28;20450;-67
2022/04/23 06:34:19;;;;;;;35.27;23.70;;;16.00;33.60;;;;;;5111614;28;20189;-67
2022/04/23 06:36:44;;;;;;;28.67;21.43;;;16.10;33.40;;;;;;5111966;28;20162;-67
2022/04/23 06:39:10;;;;;;;25.40;18.13;;;16.00;32.90;;;;;;5099706;28;20790;-67
2022/04/23 06:41:35;;;;;;;25.83;18.57;;;15.60;35.20;;;;;;5095574;28;20201;-67
2022/04/23 06:44:01;;;;;;;26.43;18.80;;;15.10;36.40;;;;;;5111520;28;20182;-69
2022/04/23 06:46:27;;;;;;;25.97;19.00;;;15.20;35.10;;;;;;5111519;28;20223;-71
2022/04/23 06:48:53;;;;;;;24.20;17.77;;;15.20;36.10;;;;;;5103114;28;20204;-73
2022/04/23 06:51:19;;;;;;;26.20;17.57;;;15.40;34.60;;;;;;5081778;28;20178;-71
2022/04/23 06:53:44;;;;;;;24.80;18.07;;;15.70;33.90;;;;;;5098627;28;20190;-72
2022/04/23 06:56:10;;;;;;;22.07;16.13;;;16.20;32.70;;;;;;5109337;28;20428;-72
2022/04/23 06:58:36;;;;;;;23.40;15.53;;;15.90;33.80;;;;;;5106964;28;20182;-72
2022/04/23 07:01:03;;;;;;;20.60;15.47;;;16.00;33.70;;;;;;5105279;28;20205;-72
2022/04/23 07:03:29;;;;;;;20.23;15.20;;;14.70;31.50;;;;;;5091996;28;20180;-72
2022/04/23 07:05:55;;;;;;;24.67;16.87;;;15.50;33.40;;;;;;5102823;28;20557;-73
2022/04/23 07:08:20;;;;;;;20.20;15.10;;;15.30;34.20;;;;;;5103912;28;20182;-67
2022/04/23 07:10:46;;;;;;;20.63;15.27;;;15.70;33.40;;;;;;5101773;28;20173;-69
2022/04/23 07:13:12;;;;;;;21.33;14.87;;;16.00;32.80;;;;;;5101974;28;20598;-68
2022/04/23 07:15:39;;;;;;;18.80;14.00;;;15.90;32.70;;;;;;5107834;28;20457;-69
2022/04/23 07:18:07;;;;;;;17.80;13.90;;;15.40;34.90;;;;;;5103565;28;20440;-68
2022/04/23 07:20:33;;;;;;;16.30;12.43;;;14.90;36.00;;;;;;5101764;28;20467;-68
2022/04/23 07:25:42;;;;;;;20.20;13.67;;;15.10;35.10;;;;;;5094745;28;20256;-67
2022/04/23 07:28:08;;;;;;;17.80;13.13;;;14.80;36.80;;;;;;5105394;28;20828;-68
2022/04/23 07:30:35;;;;;;;16.63;12.63;;;15.10;36.70;;;;;;5102535;28;20731;-66
2022/04/23 07:33:01;;;;;;;18.53;13.40;;;15.60;34.80;;;;;;5109701;28;20184;-67
2022/04/23 07:38:22;;;;;;;17.90;14.00;;;15.50;34.10;;;;;;5107721;28;20465;-67
2022/04/23 07:40:49;;;;;;;17.83;13.40;;;15.90;33.70;;;;;;5112339;28;20458;-66
2022/04/23 07:43:15;;;;;;;17.20;13.23;;;16.00;33.90;;;;;;5096994;28;20428;-67
2022/04/23 07:45:44;;;;;;;19.53;13.57;;;16.30;31.70;;;;;;5104300;28;20444;-67
2022/04/23 07:48:11;;;;;;;16.90;12.97;;;16.00;33.40;;;;;;5109271;28;20470;-67
2022/04/23 07:50:39;;;;;;;17.13;12.50;;;16.30;31.90;;;;;;5100844;28;20425;-67
2022/04/23 07:53:07;;;;;;;16.30;12.30;;;17.00;30.00;;;;;;5088911;28;20826;-67
2022/04/23 07:55:35;;;;;;;19.83;13.00;;;16.90;30.90;;;;;;5108119;28;20454;-67
2022/04/23 07:58:03;;;;;;;14.77;12.10;;;16.20;33.30;;;;;;5109524;28;20922;-68
2022/04/23 08:00:30;;;;;;;20.30;12.70;;;16.00;32.10;;;;;;5105019;28;20460;-69
2022/04/23 08:02:56;;;;;;;14.57;12.10;;;16.20;32.30;;;;;;5096599;28;20429;-68
2022/04/23 08:05:22;;;;;;;16.40;11.60;;;16.50;31.60;;;;;;5097405;28;20460;-68
2022/04/23 08:07:47;;;;;;;14.90;12.07;;;16.40;30.90;;;;;;5113446;28;20492;-68
2022/04/23 08:10:13;;;;;;;18.60;12.57;;;16.70;30.20;;;;;;5110991;28;20191;-67
2022/04/23 08:12:39;;;;;;;15.03;11.73;;;17.20;29.30;;;;;;5105540;28;20457;-67
2022/04/23 08:15:05;;;;;;;15.13;12.00;;;17.10;29.80;;;;;;5104807;28;20459;-68
2022/04/23 08:17:32;;;;;;;19.90;13.30;;;16.90;30.40;;;;;;5101083;28;20182;-68
2022/04/23 08:19:57;;;;;;;14.40;11.93;;;17.10;29.90;;;;;;5101744;28;20426;-67
2022/04/23 08:22:23;;;;;;;13.53;11.60;;;17.40;29.10;;;;;;5105108;28;21010;-67
2022/04/23 08:24:49;;;;;;;18.30;11.43;;;17.10;29.80;;;;;;5104425;28;20218;-67
2022/04/23 08:27:14;;;;;;;20.43;11.33;;;16.70;30.20;;;;;;5097025;28;20549;-67
2022/04/23 08:32:24;;;;;;;13.27;10.63;;;17.00;29.90;;;;;;5107566;28;20252;-68
2022/04/23 08:34:50;;;;;;;16.30;11.70;;;16.80;31.00;;;;;;5104524;28;20964;-68
2022/04/23 08:37:15;;;;;;;14.43;11.53;;;17.00;30.70;;;;;;5101286;28;20224;-68
2022/04/23 08:39:42;;;;;;;21.20;11.83;;;16.80;30.30;;;;;;5106605;28;20212;-67
2022/04/23 08:42:09;;;;;;;16.17;12.10;;;17.00;30.00;;;;;;5108882;28;20473;-70
2022/04/23 08:44:37;;;;;;;15.00;12.13;;;16.70;30.20;;;;;;5100572;28;20847;-67
2022/04/23 08:47:04;;;;;;;15.60;12.00;;;16.50;30.40;;;;;;5106367;28;20442;-74
2022/04/23 08:49:35;;;;;;;16.00;11.93;;;17.00;29.40;;;;;;5104963;28;20446;-67
2022/04/23 08:52:15;;;;;;;16.90;12.80;;;16.70;31.00;;;;;;5106278;27;20441;-67
2022/04/23 08:54:41;;;;;;;16.27;12.10;;;16.50;30.50;;;;;;5102838;28;20459;-68
2022/04/23 08:57:07;;;;;;;16.27;12.33;;;17.00;31.20;;;;;;5083806;28;20450;-68
2022/04/23 08:59:33;;;;;;;18.30;13.67;;;17.30;30.30;;;;;;5112974;28;20424;-67
2022/04/23 09:01:59;;;;;;;17.10;12.60;;;17.70;30.60;;;;;;5112719;28;20203;-68
2022/04/23 09:04:25;;;;;;;19.73;14.17;;;18.00;29.60;;;;;;5112626;28;20446;-68
2022/04/23 09:06:50;;;;;;;21.33;14.47;;;18.20;29.20;;;;;;5112291;28;20520;-68
2022/04/23 09:09:21;;;;;;;18.27;14.20;;;17.30;30.30;;;;;;5112811;28;20301;-67
2022/04/23 09:11:52;;;;;;;20.73;13.97;;;17.20;29.70;;;;;;5112693;28;20165;-67
2022/04/23 09:14:36;;;;;;;20.07;14.77;;;17.20;30.20;;;;;;5112216;28;20446;-67
2022/04/23 09:25:17;;;;;;;25.00;14.50;;;17.30;30.40;;;;;;5104481;28;20446;-67
2022/04/23 09:27:43;;;;;;;19.57;15.00;;;17.40;29.50;;;;;;5106755;28;20430;-67
2022/04/23 09:30:13;;;;;;;17.60;13.80;;;17.40;29.10;;;;;;5112357;28;20545;-67
2022/04/23 09:33:00;;;;;;;19.33;14.00;;;17.30;29.60;;;;;;5111992;28;20417;-67
2022/04/23 09:35:26;;;;;;;19.30;14.70;;;18.60;28.50;;;;;;5101891;28;20538;-67
2022/04/23 09:40:37;;;;;;;19.23;15.13;;;18.80;28.00;;;;;;5101032;28;20458;-67
2022/04/23 09:43:11;;;;;;;17.33;13.80;;;18.70;28.00;;;;;;5111846;28;20412;-68
2022/04/23 09:45:47;;;;;;;20.03;14.00;;;19.00;26.70;;;;;;5107997;28;20437;-68
2022/04/23 09:48:15;;;;;;;19.20;14.17;;;18.70;27.30;;;;;;5091379;28;20481;-68
2022/04/23 09:50:43;;;;;;;17.93;13.93;;;18.90;27.40;;;;;;5091950;28;20501;-68
2022/04/23 09:53:16;;;;;;;19.20;14.07;;;18.80;26.90;;;;;;5091305;28;20474;-68
2022/04/23 09:55:43;;;;;;;16.20;12.80;;;19.50;25.90;;;;;;5091534;28;20431;-68
2022/04/23 09:58:10;;;;;;;14.83;12.97;;;19.30;26.10;;;;;;5099168;28;20473;-68
2022/04/23 10:00:47;;;;;;;25.70;14.73;;;19.00;27.50;;;;;;5101999;28;20520;-68
2022/04/23 10:03:13;;;;;;;21.10;14.07;;;19.50;25.60;;;;;;5095105;28;20427;-68
2022/04/23 10:05:45;;;;;;;18.27;13.50;;;19.20;26.30;;;;;;5097346;28;20903;-68
2022/04/23 10:08:13;;;;;;;17.27;13.70;;;19.60;26.30;;;;;;5098210;28;20508;-68
2022/04/23 10:10:52;;;;;;;20.70;14.53;;;19.10;26.60;;;;;;5095929;28;20489;-69
2022/04/23 10:13:20;;;;;;;20.77;14.07;;;19.50;26.60;;;;;;5102725;28;20446;-68
2022/04/23 10:15:47;;;;;;;17.27;14.10;;;19.80;25.20;;;;;;5092539;28;20510;-70
2022/04/23 10:18:14;;;;;;;18.57;14.33;;;20.20;25.60;;;;;;5103203;28;20516;-69
2022/04/23 10:20:52;;;;;;;18.87;14.33;;;20.30;24.20;;;;;;5086022;28;20461;-69
2022/04/23 10:23:58;;;;;;;18.20;14.03;;;20.00;25.10;;;;;;5093021;28;20485;-68
2022/04/23 10:26:34;;;;;;;20.03;15.30;;;18.90;26.00;;;;;;5110582;28;20400;-68
2022/04/23 10:29:01;;;;;;;20.50;15.73;;;18.80;26.30;;;;;;5108774;28;20427;-68
2022/04/23 10:31:27;;;;;;;25.90;15.97;;;18.50;27.20;;;;;;5110832;28;20499;-68
2022/04/23 10:33:53;;;;;;;24.43;15.33;;;18.80;26.40;;;;;;5111286;28;20856;-69
2022/04/23 10:36:20;;;;;;;20.93;14.47;;;18.60;26.70;;;;;;5111533;28;20239;-68
2022/04/23 10:38:52;;;;;;;23.30;15.40;;;18.50;27.70;;;;;;5110770;28;20169;-68
2022/04/23 10:41:24;;;;;;;21.30;16.10;;;18.90;26.10;;;;;;5111137;28;20494;-68
2022/04/23 10:44:00;;;;;;;20.70;14.97;;;18.50;27.70;;;;;;5111051;28;20532;-68
2022/04/23 10:46:38;;;;;;;19.83;13.80;;;18.90;28.80;;;;;;5111878;28;20435;-69
2022/04/23 10:49:16;;;;;;;19.37;15.87;;;19.80;25.80;;;;;;5111164;28;20867;-69
2022/04/23 10:51:56;;;;;;;20.93;15.53;;;19.30;25.50;;;;;;5109877;28;20424;-68
2022/04/23 10:54:40;;;;;;;20.53;15.57;;;20.00;24.50;;;;;;5110868;28;20535;-67
2022/04/23 10:57:07;;;;;;;20.50;15.20;;;20.00;24.90;;;;;;5111306;28;20895;-67
2022/04/23 10:59:49;;;;;;;19.10;15.10;;;20.40;24.50;;;;;;5092321;28;20952;-67
2022/04/23 11:02:24;;;;;;;18.57;14.90;;;20.50;24.30;;;;;;5108200;28;20999;-66
2022/04/23 11:13:48;;;;;;;20.00;15.70;;;19.80;25.80;;;;;;5091085;28;20771;-66
2022/04/23 11:16:16;;;;;;;19.73;15.10;;;20.70;23.90;;;;;;5090879;28;20421;-67
2022/04/23 11:19:02;;;;;;;21.33;15.50;;;21.10;23.30;;;;;;5090899;28;20175;-67
2022/04/23 11:21:30;;;;;;;23.10;15.73;;;20.90;24.30;;;;;;5091662;28;20456;-68
2022/04/23 11:23:58;;;;;;;19.83;15.90;;;20.90;24.10;;;;;;5090671;28;20953;-68
2022/04/23 11:26:55;;;;;;;24.27;16.00;;;21.00;24.60;;;;;;5090520;28;20408;-69
2022/04/23 11:29:21;;;;;;;23.40;16.27;;;20.00;24.40;;;;;;5072370;28;20481;-68
2022/04/23 11:31:56;;;;;;;20.87;16.03;;;19.90;24.80;;;;;;5112464;28;20421;-68
2022/04/23 11:34:22;;;;;;;23.83;15.93;;;19.60;25.20;;;;;;5111585;28;20665;-68
2022/04/23 11:36:48;;;;;;;21.80;16.13;;;19.30;24.90;;;;;;5111263;28;20411;-68
2022/04/23 11:39:14;;;;;;;23.57;17.00;;;19.10;26.30;;;;;;5114531;28;20406;-68
2022/04/23 11:41:44;;;;;;;24.00;17.57;;;18.70;25.90;;;;;;5112592;28;20464;-68
2022/04/23 11:44:16;;;;;;;22.90;16.70;;;18.50;27.40;;;;;;5114505;28;20622;-68
2022/04/23 11:46:46;;;;;;;24.33;18.30;;;19.10;25.40;;;;;;5114233;28;20411;-68
2022/04/23 11:49:25;;;;;;;24.70;16.63;;;19.50;25.60;;;;;;5114489;28;20723;-68
2022/04/23 11:51:51;;;;;;;21.60;16.10;;;19.40;25.50;;;;;;5113412;28;20435;-69
2022/04/23 11:54:16;;;;;;;21.87;17.50;;;19.60;25.10;;;;;;5114352;28;20438;-69
2022/04/23 11:56:46;;;;;;;23.17;17.37;;;19.70;24.90;;;;;;5114331;28;20174;-68
2022/04/23 11:59:11;;;;;;;25.83;16.80;;;19.50;25.10;;;;;;5114744;28;20198;-68
2022/04/23 12:01:41;;;;;;;22.80;16.83;;;19.50;25.60;;;;;;5112168;28;20584;-69
2022/04/23 12:04:07;;;;;;;30.33;18.23;;;19.40;26.10;;;;;;5113969;28;20662;-68
2022/04/23 12:06:46;;;;;;;25.10;18.40;;;19.20;25.40;;;;;;5114029;28;20402;-66
2022/04/23 12:09:12;;;;;;;30.77;16.70;;;19.60;24.80;;;;;;5114167;28;20226;-67
2022/04/23 12:11:38;;;;;;;21.03;15.70;;;19.30;25.40;;;;;;5113868;28;20415;-66
2022/04/23 12:14:05;;;;;;;25.00;16.73;;;19.10;25.80;;;;;;5111843;28;20504;-69
2022/04/23 12:16:33;;;;;;;24.20;16.90;;;19.30;25.50;;;;;;5092551;28;20496;-68
2022/04/23 12:19:08;;;;;;;22.50;16.17;;;19.30;25.80;;;;;;5108730;28;20449;-68
2022/04/23 12:21:36;;;;;;;31.33;16.33;;;19.10;26.00;;;;;;5101337;28;20861;-68
2022/04/23 12:24:02;;;;;;;23.10;16.87;;;19.00;25.90;;;;;;5105505;28;20461;-69
2022/04/23 12:26:33;;;;;;;26.80;16.77;;;18.60;27.60;;;;;;5100418;28;20437;-67
2022/04/23 12:42:22;;;;;;;21.30;16.10;;;19.90;25.90;;;;;;5101377;28;20625;-67
2022/04/23 12:44:51;;;;;;;21.10;16.27;;;19.90;25.90;;;;;;5074780;28;20561;-68
2022/04/23 12:47:26;;;;;;;24.47;16.87;;;19.10;26.50;;;;;;5091194;28;20227;-66
2022/04/23 12:49:57;;;;;;;23.67;16.60;;;19.40;26.40;;;;;;5085720;28;20437;-66
2022/04/23 12:52:27;;;;;;;24.60;17.30;;;19.70;27.20;;;;;;5092662;28;20433;-66
2022/04/23 12:55:12;;;;;;;21.57;16.33;;;19.80;25.40;;;;;;5092930;28;20484;-66
2022/04/23 12:57:41;;;;;;;22.47;15.90;;;19.20;26.20;;;;;;5105984;28;20460;-66
2022/04/23 13:00:12;;;;;;;21.30;16.83;;;19.00;27.80;;;;;;5098153;28;20979;-67
2022/04/23 13:02:39;;;;;;;23.33;15.70;;;18.60;27.20;;;;;;5103458;28;21030;-66
2022/04/23 13:05:07;;;;;;;20.27;16.00;;;19.40;27.30;;;;;;5095028;28;20463;-67
2022/04/23 13:10:18;;;;;;;22.10;16.00;;;20.10;24.90;;;;;;5101635;28;20485;-66
2022/04/23 13:12:43;;;;;;;21.87;15.77;;;19.70;25.80;;;;;;5100737;28;20834;-66
2022/04/23 13:15:09;;;;;;;24.23;15.30;;;20.00;27.10;;;;;;5102178;28;20202;-67